createdAt,value
2018-03-11T00:00:09.104Z,2.4
2018-03-11T00:05:36.447Z,2.4
2018-03-11T00:11:03.792Z,2.5
2018-03-11T00:16:31.105Z,2.5
2018-03-11T00:21:58.631Z,2.5
2018-03-11T00:27:25.797Z,2.5
2018-03-11T00:32:54.191Z,2.5
2018-03-11T00:38:22.468Z,2.5
2018-03-11T00:43:49.795Z,2.5
2018-03-11T00:49:17.164Z,2.5
2018-03-11T00:54:44.491Z,2.6
2018-03-11T01:00:12.770Z,2.5
2018-03-11T01:05:40.131Z,2.6
2018-03-11T01:11:08.482Z,2.6
2018-03-11T01:16:36.862Z,2.6
2018-03-11T01:22:05.512Z,2.6
2018-03-11T01:27:33.460Z,2.6
2018-03-11T01:33:00.807Z,2.7
2018-03-11T01:38:28.201Z,2.7
2018-03-11T01:43:56.613Z,2.7
2018-03-11T01:49:23.848Z,2.7
2018-03-11T01:54:51.214Z,2.7
2018-03-11T02:00:18.785Z,2.7
2018-03-11T02:05:45.918Z,2.7
2018-03-11T02:11:14.236Z,2.8
2018-03-11T02:16:41.628Z,2.8
2018-03-11T02:22:08.889Z,2.8
2018-03-11T02:27:36.275Z,2.7
2018-03-11T02:33:03.608Z,2.8
2018-03-11T02:38:31.039Z,2.8
2018-03-11T02:43:58.423Z,2.8
2018-03-11T02:49:25.638Z,2.8
2018-03-11T02:54:52.967Z,2.9
2018-03-11T03:00:20.397Z,2.9
2018-03-11T03:05:47.688Z,2.9
2018-03-11T03:11:16.061Z,2.9
2018-03-11T03:16:43.453Z,2.9
2018-03-11T03:22:10.734Z,2.9
2018-03-11T03:27:39.100Z,2.9
2018-03-11T03:33:07.466Z,2.9
2018-03-11T03:38:35.779Z,3
2018-03-11T03:44:03.279Z,3
2018-03-11T03:49:31.602Z,3
2018-03-11T03:55:00.275Z,3
2018-03-11T04:00:28.235Z,2.9
2018-03-11T04:05:56.612Z,2.9
2018-03-11T04:11:23.966Z,2.9
2018-03-11T04:16:51.442Z,2.9
2018-03-11T04:22:18.699Z,2.9
2018-03-11T04:27:47.255Z,2.9
2018-03-11T04:33:15.392Z,2.9
2018-03-11T04:38:43.782Z,2.9
2018-03-11T04:44:11.113Z,2.9
2018-03-11T04:49:38.456Z,2.9
2018-03-11T04:55:06.888Z,2.9
2018-03-11T05:00:35.154Z,3
2018-03-11T05:06:02.545Z,2.9
2018-03-11T05:11:30.054Z,2.9
2018-03-11T05:16:57.306Z,3
2018-03-11T05:22:25.596Z,3
2018-03-11T05:27:52.998Z,3
2018-03-11T05:33:20.400Z,3
2018-03-11T05:38:47.709Z,3.1
2018-03-11T05:44:16.100Z,3.1
2018-03-11T05:49:43.454Z,3.2
2018-03-11T05:55:11.808Z,3.2
2018-03-11T06:00:39.213Z,3.3
2018-03-11T06:06:06.614Z,3.3
2018-03-11T06:11:34.923Z,3.3
2018-03-11T06:17:03.470Z,3.4
2018-03-11T06:22:30.726Z,3.4
2018-03-11T06:27:59.106Z,3.5
2018-03-11T06:33:26.575Z,3.5
2018-03-11T06:38:54.001Z,3.6
2018-03-11T06:44:21.389Z,3.6
2018-03-11T06:49:49.800Z,3.7
2018-03-11T06:55:17.271Z,3.8
2018-03-11T07:00:45.726Z,4
2018-03-11T07:06:13.144Z,4.1
2018-03-11T07:11:40.526Z,4.1
2018-03-11T07:17:08.953Z,4.2
2018-03-11T07:22:36.446Z,4.2
2018-03-11T07:28:04.849Z,4.2
2018-03-11T07:33:33.278Z,4.3
2018-03-11T07:39:00.735Z,4.4
2018-03-11T07:44:29.199Z,4.6
2018-03-11T07:49:57.687Z,4.8
2018-03-11T07:55:26.199Z,5
2018-03-11T08:00:55.639Z,5.2
2018-03-11T08:06:22.208Z,5.3
2018-03-11T08:11:49.737Z,5.3
2018-03-11T08:17:18.263Z,5.3
2018-03-11T08:22:45.791Z,5.3
2018-03-11T08:28:14.301Z,5.4
2018-03-11T08:33:41.862Z,5.4
2018-03-11T08:39:10.386Z,5.5
2018-03-11T08:44:38.918Z,5.6
2018-03-11T08:50:07.461Z,5.7
2018-03-11T08:55:35.165Z,5.6
2018-03-11T09:01:02.619Z,5.6
2018-03-11T09:06:31.144Z,5.6
2018-03-11T09:11:58.675Z,5.6
2018-03-11T09:17:27.257Z,5.6
2018-03-11T09:22:54.776Z,5.7
2018-03-11T09:28:23.321Z,5.7
2018-03-11T09:33:50.923Z,5.8
2018-03-11T09:39:19.499Z,5.9
2018-03-11T09:44:48.181Z,5.9
2018-03-11T09:50:15.634Z,6
2018-03-11T09:55:43.180Z,6.1
2018-03-11T10:01:10.788Z,6.2
2018-03-11T10:06:39.410Z,6.3
2018-03-11T10:12:08.030Z,6.4
2018-03-11T10:17:36.597Z,6.6
2018-03-11T10:23:04.464Z,6.8
2018-03-11T10:28:31.903Z,7
2018-03-11T10:33:59.602Z,7.1
2018-03-11T10:39:28.237Z,7.3
2018-03-11T10:44:56.933Z,7.4
2018-03-11T10:50:25.669Z,7.6
2018-03-11T10:55:53.374Z,7.9
2018-03-11T11:01:21.124Z,8.1
2018-03-11T11:06:48.839Z,8.1
2018-03-11T11:12:16.632Z,8.2
2018-03-11T11:17:44.361Z,8.4
2018-03-11T11:23:13.399Z,8.8
2018-03-11T11:28:42.067Z,9.4
2018-03-11T11:34:09.831Z,9.9
2018-03-11T11:39:38.746Z,9.9
2018-03-11T11:45:07.676Z,9.9
2018-03-11T11:50:36.684Z,9.9
2018-03-11T11:56:04.740Z,10
2018-03-11T12:01:33.415Z,10
2018-03-11T12:07:01.613Z,10.2
2018-03-11T12:12:29.359Z,10.4
2018-03-11T12:17:58.210Z,10.5
2018-03-11T12:23:26.185Z,10.8
2018-03-11T12:28:54.196Z,11.2
2018-03-11T12:34:22.249Z,11.5
2018-03-11T12:39:50.501Z,11.9
2018-03-11T12:45:19.402Z,12
2018-03-11T12:50:48.498Z,11.8
2018-03-11T12:56:17.594Z,11.6
2018-03-11T13:01:45.699Z,11.5
2018-03-11T13:07:13.746Z,11.3
2018-03-11T13:12:42.841Z,11.2
2018-03-11T13:18:11.858Z,11.2
2018-03-11T13:23:39.946Z,11.3
2018-03-11T13:29:08.957Z,11.5
2018-03-11T13:34:38.030Z,11.6
2018-03-11T13:40:06.102Z,11.5
2018-03-11T13:45:34.252Z,11.5
2018-03-11T13:51:02.399Z,11.6
2018-03-11T13:56:31.354Z,11.8
2018-03-11T14:02:00.498Z,12
2018-03-11T14:07:29.697Z,12.2
2018-03-11T14:12:58.749Z,12.3
2018-03-11T14:18:27.852Z,12.2
2018-03-11T14:23:56.959Z,11.9
2018-03-11T14:29:25.092Z,11.6
2018-03-11T14:34:53.156Z,11.4
2018-03-11T14:40:22.251Z,11.3
2018-03-11T14:45:51.389Z,11.1
2018-03-11T14:51:20.298Z,11.1
2018-03-11T14:56:48.329Z,10.9
2018-03-11T15:02:17.758Z,10.7
2018-03-11T15:07:45.298Z,10.5
2018-03-11T15:13:14.273Z,10.3
2018-03-11T15:18:43.196Z,10.1
2018-03-11T15:24:11.304Z,9.9
2018-03-11T15:29:39.039Z,9.8
2018-03-11T15:35:06.986Z,9.7
2018-03-11T15:40:34.975Z,9.6
2018-03-11T15:46:03.776Z,9.5
2018-03-11T15:51:31.648Z,9.4
2018-03-11T15:56:59.502Z,9.4
2018-03-11T16:02:27.325Z,9.3
2018-03-11T16:07:55.205Z,9.2
2018-03-11T16:13:24.001Z,9.1
2018-03-11T16:18:52.826Z,9.1
2018-03-11T16:24:28.472Z,9.1
2018-03-11T16:29:49.532Z,9
2018-03-11T16:35:18.330Z,8.9
2018-03-11T16:40:47.211Z,8.8
2018-03-11T16:46:15.088Z,8.7
2018-03-11T16:51:43.747Z,8.6
2018-03-11T16:57:11.541Z,8.6
2018-03-11T17:02:39.326Z,8.5
2018-03-11T17:08:07.175Z,8.4
2018-03-11T17:13:34.919Z,8.3
2018-03-11T17:19:03.690Z,8.2
2018-03-11T17:24:32.439Z,8.1
2018-03-11T17:30:00.160Z,8
2018-03-11T17:35:27.948Z,8
2018-03-11T17:40:56.609Z,8
2018-03-11T17:46:25.389Z,8
2018-03-11T17:51:53.077Z,7.9
2018-03-11T17:57:21.830Z,7.9
2018-03-11T18:02:49.558Z,7.9
2018-03-11T18:08:18.259Z,7.9
2018-03-11T18:13:46.980Z,7.8
2018-03-11T18:19:15.771Z,7.7
2018-03-11T18:24:43.593Z,7.7
2018-03-11T18:30:11.454Z,7.7
2018-03-11T18:35:38.851Z,7.7
2018-03-11T18:41:06.544Z,7.8
2018-03-11T18:46:35.268Z,7.9
2018-03-11T18:52:04.008Z,7.9
2018-03-11T18:57:31.709Z,8
2018-03-11T19:03:00.474Z,8.1
2018-03-11T19:08:29.237Z,8.2
2018-03-11T19:13:56.979Z,8.2
2018-03-11T19:19:25.722Z,8.2
2018-03-11T19:24:54.486Z,8.2
2018-03-11T19:30:22.202Z,8.2
2018-03-11T19:35:50.939Z,8.2
2018-03-11T19:41:18.719Z,8.1
2018-03-11T19:46:46.509Z,8.1
2018-03-11T19:52:14.248Z,8.1
2018-03-11T19:57:42.927Z,8.1
2018-03-11T20:03:10.667Z,8.1
2018-03-11T20:08:39.390Z,8.1
2018-03-11T20:14:07.137Z,8
2018-03-11T20:19:35.847Z,8
2018-03-11T20:25:03.574Z,8
2018-03-11T20:30:32.324Z,8
2018-03-11T20:36:00.064Z,7.9
2018-03-11T20:41:28.992Z,7.9
2018-03-11T20:46:57.721Z,7.8
2018-03-11T20:52:26.194Z,7.8
2018-03-11T20:57:53.924Z,7.9
2018-03-11T21:03:21.637Z,7.9
2018-03-11T21:08:50.418Z,7.9
2018-03-11T21:14:18.146Z,8
2018-03-11T21:19:46.851Z,8
2018-03-11T21:25:14.568Z,8
2018-03-11T21:30:42.316Z,7.9
2018-03-11T21:36:10.028Z,7.7
2018-03-11T21:41:37.831Z,7.6
2018-03-11T21:47:05.411Z,7.5
2018-03-11T21:52:34.127Z,7.3
2018-03-11T21:58:02.870Z,7.2
2018-03-11T22:03:31.474Z,7.1
2018-03-11T22:08:59.116Z,7
2018-03-11T22:14:27.823Z,6.9
2018-03-11T22:19:56.356Z,6.8
2018-03-11T22:25:24.032Z,6.7
2018-03-11T22:30:52.627Z,6.7
2018-03-11T22:36:20.258Z,6.6
2018-03-11T22:41:47.865Z,6.5
2018-03-11T22:47:16.488Z,6.5
2018-03-11T22:52:44.104Z,6.4
2018-03-11T22:58:12.663Z,6.3
2018-03-11T23:03:41.220Z,6.3
2018-03-11T23:09:09.808Z,6.2
2018-03-11T23:14:38.548Z,6.1
2018-03-11T23:20:05.964Z,6.1
2018-03-11T23:25:34.516Z,6
2018-03-11T23:31:02.094Z,5.9
2018-03-11T23:36:30.652Z,5.8
2018-03-11T23:36:31.125Z,5.8
2018-03-11T23:41:58.168Z,5.7
2018-03-11T23:47:25.746Z,5.6
2018-03-11T23:52:54.218Z,5.5
2018-03-11T23:58:22.718Z,5.4
